createdAt,value
2023-08-24T00:00:16.864Z,94867.78
2023-08-24T00:02:43.298Z,94867.84
2023-08-24T00:05:09.735Z,94861.34
2023-08-24T00:07:36.100Z,94858.69
2023-08-24T00:10:02.485Z,94863.25
2023-08-24T00:12:28.865Z,94854.09
2023-08-24T00:14:55.268Z,94852.47
2023-08-24T00:17:21.647Z,94849.59
2023-08-24T00:19:48.043Z,94851.22
2023-08-24T00:22:14.416Z,94853.91
2023-08-24T00:24:40.811Z,94854.06
2023-08-24T00:27:07.205Z,94853.72
2023-08-24T00:29:33.610Z,94859.56
2023-08-24T00:31:59.978Z,94856.44
2023-08-24T00:34:26.353Z,94847.50
2023-08-24T00:36:52.743Z,94848.00
2023-08-24T00:39:19.136Z,94840.81
2023-08-24T00:41:45.525Z,94843.06
2023-08-24T00:44:11.895Z,94837.31
2023-08-24T00:46:38.274Z,94842.56
2023-08-24T00:49:04.641Z,94848.50
2023-08-24T00:51:31.028Z,94840.41
2023-08-24T00:53:57.446Z,94835.28
2023-08-24T00:56:23.847Z,94837.00
2023-08-24T00:58:50.243Z,94839.34
2023-08-24T01:01:16.730Z,94841.03
2023-08-24T01:03:43.175Z,94840.47
2023-08-24T01:06:09.559Z,94839.56
2023-08-24T01:08:35.949Z,94840.53
2023-08-24T01:11:02.334Z,94848.94
2023-08-24T01:13:28.724Z,94839.56
2023-08-24T01:15:55.094Z,94838.66
2023-08-24T01:18:21.464Z,94838.47
2023-08-24T01:20:47.834Z,94834.50
2023-08-24T01:23:14.219Z,94830.81
2023-08-24T01:25:40.610Z,94831.22
2023-08-24T01:28:07.001Z,94832.41
2023-08-24T01:30:33.367Z,94828.25
2023-08-24T01:32:59.818Z,94843.69
2023-08-24T01:35:26.241Z,94837.47
2023-08-24T01:37:52.819Z,94834.75
2023-08-24T01:40:19.246Z,94842.44
2023-08-24T01:42:45.633Z,94838.41
2023-08-24T01:45:12.047Z,94838.41
2023-08-24T01:47:38.455Z,94835.94
2023-08-24T01:50:04.855Z,94829.06
2023-08-24T01:52:31.239Z,94828.03
2023-08-24T01:54:57.643Z,94825.72
2023-08-24T01:57:24.060Z,94821.31
2023-08-24T01:59:50.450Z,94823.38
2023-08-24T02:02:16.809Z,94826.63
2023-08-24T02:04:43.190Z,94823.53
2023-08-24T02:07:09.570Z,94822.56
2023-08-24T02:09:35.950Z,94807.97
2023-08-24T02:12:02.347Z,94806.47
2023-08-24T02:14:28.743Z,94801.72
2023-08-24T02:16:55.162Z,94792.22
2023-08-24T02:19:21.550Z,94791.50
2023-08-24T02:21:47.938Z,94790.34
2023-08-24T02:24:14.308Z,94790.78
2023-08-24T02:26:40.695Z,94791.38
2023-08-24T02:29:07.075Z,94793.28
2023-08-24T02:31:33.498Z,94784.19
2023-08-24T02:33:59.926Z,94777.66
2023-08-24T02:36:26.308Z,94776.72
2023-08-24T02:38:52.706Z,94775.31
2023-08-24T02:41:19.094Z,94779.59
2023-08-24T02:43:47.455Z,94773.03
2023-08-24T02:46:14.164Z,94776.19
2023-08-24T02:48:40.557Z,94777.78
2023-08-24T02:51:06.973Z,94777.47
2023-08-24T02:53:33.390Z,94778.81
2023-08-24T02:55:59.782Z,94771.50
2023-08-24T02:58:26.150Z,94772.66
2023-08-24T03:00:52.545Z,94770.03
2023-08-24T03:03:18.952Z,94771.88
2023-08-24T03:05:45.322Z,94766.22
2023-08-24T03:08:11.708Z,94769.88
2023-08-24T03:10:38.080Z,94764.16
2023-08-24T03:13:04.465Z,94759.06
2023-08-24T03:15:30.857Z,94757.94
2023-08-24T03:17:57.347Z,94759.81
2023-08-24T03:20:23.800Z,94764.44
2023-08-24T03:22:50.178Z,94760.97
2023-08-24T03:25:16.574Z,94760.53
2023-08-24T03:27:42.959Z,94764.09
2023-08-24T03:30:09.349Z,94760.31
2023-08-24T03:32:35.798Z,94761.16
2023-08-24T03:35:02.247Z,94771.94
2023-08-24T03:37:28.651Z,94761.38
2023-08-24T03:39:55.031Z,94768.91
2023-08-24T03:42:21.419Z,94766.72
2023-08-24T03:44:47.815Z,94762.47
2023-08-24T03:47:14.198Z,94767.59
2023-08-24T03:49:40.569Z,94763.25
2023-08-24T03:52:06.958Z,94764.88
2023-08-24T03:54:33.343Z,94764.38
2023-08-24T03:56:59.729Z,94774.03
2023-08-24T03:59:26.108Z,94758.09
2023-08-24T04:01:52.484Z,94768.97
2023-08-24T04:04:18.860Z,94764.09
2023-08-24T04:06:45.241Z,94774.09
2023-08-24T04:09:11.627Z,94771.13
2023-08-24T04:11:37.989Z,94774.09
2023-08-24T04:14:04.368Z,94781.91
2023-08-24T04:16:30.750Z,94786.22
2023-08-24T04:18:57.126Z,94785.13
2023-08-24T04:21:23.529Z,94780.56
2023-08-24T04:23:49.897Z,94781.09
2023-08-24T04:26:16.255Z,94781.28
2023-08-24T04:28:42.630Z,94776.75
2023-08-24T04:31:09.019Z,94778.13
2023-08-24T04:33:35.437Z,94774.59
2023-08-24T04:36:01.836Z,94772.44
2023-08-24T04:38:28.229Z,94787.50
2023-08-24T04:40:54.630Z,94772.38
2023-08-24T04:43:21.025Z,94774.88
2023-08-24T04:45:47.398Z,94776.75
2023-08-24T04:48:13.796Z,94775.94
2023-08-24T04:50:40.251Z,94775.97
2023-08-24T04:53:06.645Z,94777.28
2023-08-24T04:55:33.028Z,94776.50
2023-08-24T04:57:59.399Z,94774.09
2023-08-24T05:00:25.787Z,94771.38
2023-08-24T05:02:52.256Z,94768.69
2023-08-24T05:05:18.649Z,94764.38
2023-08-24T05:07:45.040Z,94772.44
2023-08-24T05:10:11.436Z,94777.03
2023-08-24T05:12:37.811Z,94776.16
2023-08-24T05:15:04.180Z,94772.38
2023-08-24T05:17:30.564Z,94784.78
2023-08-24T05:19:56.983Z,94779.41
2023-08-24T05:22:23.368Z,94788.63
2023-08-24T05:24:49.767Z,94785.94
2023-08-24T05:27:16.159Z,94792.41
2023-08-24T05:29:42.557Z,94783.78
2023-08-24T05:32:08.933Z,94788.09
2023-08-24T05:34:35.305Z,94796.44
2023-08-24T05:37:01.667Z,94798.88
2023-08-24T05:39:28.087Z,94801.84
2023-08-24T05:41:54.496Z,94805.88
2023-08-24T05:44:20.888Z,94801.03
2023-08-24T05:46:47.296Z,94794.84
2023-08-24T05:49:13.681Z,94803.22
2023-08-24T05:51:40.061Z,94802.66
2023-08-24T05:54:06.449Z,94814.75
2023-08-24T05:56:32.813Z,94806.66
2023-08-24T05:58:59.195Z,94802.81
2023-08-24T06:01:25.600Z,94810.69
2023-08-24T06:03:52.054Z,94804.69
2023-08-24T06:06:18.450Z,94814.09
2023-08-24T06:08:44.813Z,94812.69
2023-08-24T06:11:11.194Z,94810.16
2023-08-24T06:13:37.590Z,94809.06
2023-08-24T06:16:03.991Z,94814.69
2023-08-24T06:18:30.401Z,94813.81
2023-08-24T06:20:56.935Z,94808.13
2023-08-24T06:23:23.331Z,94816.28
2023-08-24T06:25:49.789Z,94820.13
2023-08-24T06:28:16.204Z,94823.38
2023-08-24T06:30:42.580Z,94820.63
2023-08-24T06:33:09.010Z,94820.63
2023-08-24T06:35:35.403Z,94814.84
2023-08-24T06:38:01.788Z,94813.66
2023-08-24T06:40:28.208Z,94818.13
2023-08-24T06:42:54.608Z,94812.66
2023-08-24T06:45:21.017Z,94812.03
2023-08-24T06:47:47.407Z,94811.44
2023-08-24T06:50:13.829Z,94809.47
2023-08-24T06:52:40.200Z,94806.22
2023-08-24T06:55:06.595Z,94805.69
2023-08-24T06:57:32.977Z,94796.38
2023-08-24T06:59:59.340Z,94801.31
2023-08-24T07:02:25.802Z,94801.59
2023-08-24T07:04:52.260Z,94805.41
2023-08-24T07:07:18.663Z,94799.72
2023-08-24T07:09:45.029Z,94801.97
2023-08-24T07:12:11.467Z,94796.78
2023-08-24T07:14:37.896Z,94797.00
2023-08-24T07:17:04.279Z,94804.19
2023-08-24T07:19:30.676Z,94792.50
2023-08-24T07:21:57.085Z,94790.72
2023-08-24T07:24:34.843Z,94790.19
2023-08-24T07:27:09.825Z,94787.41
2023-08-24T07:29:36.209Z,94784.78
2023-08-24T07:32:02.716Z,94786.44
2023-08-24T07:34:29.238Z,94784.06
2023-08-24T07:36:55.611Z,94783.94
2023-08-24T07:39:22.021Z,94784.59
2023-08-24T07:41:48.398Z,94789.09
2023-08-24T07:44:14.782Z,94789.63
2023-08-24T07:46:41.218Z,94785.41
2023-08-24T07:49:07.619Z,94778.53
2023-08-24T07:51:34.020Z,94783.66
2023-08-24T07:54:00.429Z,94781.03
2023-08-24T07:56:26.809Z,94777.28
2023-08-24T07:58:53.191Z,94782.19
2023-08-24T08:01:19.603Z,94777.66
2023-08-24T08:03:46.012Z,94775.25
2023-08-24T08:06:12.408Z,94775.38
2023-08-24T08:08:38.820Z,94769.06
2023-08-24T08:11:05.238Z,94767.91
2023-08-24T08:13:32.785Z,94769.66
2023-08-24T08:15:59.478Z,94760.94
2023-08-24T08:18:25.885Z,94767.09
2023-08-24T08:20:52.262Z,94768.69
2023-08-24T08:23:18.668Z,94767.84
2023-08-24T08:25:45.052Z,94766.13
2023-08-24T08:28:11.430Z,94769.78
2023-08-24T08:30:37.927Z,94768.72
2023-08-24T08:33:04.363Z,94759.50
2023-08-24T08:35:30.774Z,94761.91
2023-08-24T08:37:57.152Z,94763.13
2023-08-24T08:40:23.593Z,94763.69
2023-08-24T08:42:50.048Z,94767.00
2023-08-24T08:45:16.457Z,94771.66
2023-08-24T08:47:42.934Z,94762.50
2023-08-24T08:50:09.396Z,94766.22
2023-08-24T08:52:35.852Z,94767.72
2023-08-24T08:55:02.231Z,94767.84
2023-08-24T08:57:29.457Z,94769.13
2023-08-24T08:59:57.416Z,94766.94
2023-08-24T09:02:23.805Z,94765.53
2023-08-24T09:04:50.254Z,94762.22
2023-08-24T09:07:16.666Z,94772.88
2023-08-24T09:09:43.038Z,94769.88
2023-08-24T09:12:09.447Z,94761.09
2023-08-24T09:14:35.847Z,94758.47
2023-08-24T09:17:02.229Z,94758.81
2023-08-24T09:19:28.613Z,94752.44
2023-08-24T09:21:54.994Z,94748.13
2023-08-24T09:24:21.361Z,94747.81
2023-08-24T09:26:47.746Z,94747.53
2023-08-24T09:29:14.125Z,94737.22
2023-08-24T09:31:40.505Z,94741.19
2023-08-24T09:34:06.937Z,94734.25
2023-08-24T09:36:33.317Z,94731.81
2023-08-24T09:38:59.696Z,94730.06
2023-08-24T09:41:26.064Z,94725.94
2023-08-24T09:43:52.455Z,94717.44
2023-08-24T09:46:18.861Z,94717.34
2023-08-24T09:48:45.318Z,94721.72
2023-08-24T09:51:11.694Z,94705.81
2023-08-24T09:53:38.101Z,94714.53
2023-08-24T09:56:04.487Z,94700.16
2023-08-24T09:58:30.871Z,94708.06
2023-08-24T10:00:57.327Z,94703.56
2023-08-24T10:03:23.814Z,94702.09
2023-08-24T10:05:57.844Z,94703.44
2023-08-24T10:08:25.013Z,94700.25
2023-08-24T10:10:51.384Z,94697.06
2023-08-24T10:13:17.762Z,94689.84
2023-08-24T10:15:44.212Z,94687.13
2023-08-24T10:18:10.624Z,94689.63
2023-08-24T10:20:37.012Z,94679.84
2023-08-24T10:23:05.423Z,94678.06
2023-08-24T10:25:32.006Z,94669.41
2023-08-24T10:27:58.395Z,94661.88
2023-08-24T10:30:24.775Z,94663.28
2023-08-24T10:32:51.317Z,94664.25
2023-08-24T10:35:17.977Z,94646.56
2023-08-24T10:37:44.376Z,94655.25
2023-08-24T10:40:10.754Z,94653.28
2023-08-24T10:42:37.139Z,94652.00
2023-08-24T10:45:03.549Z,94658.72
2023-08-24T10:47:29.964Z,94653.91
2023-08-24T10:49:56.373Z,94655.66
2023-08-24T10:52:22.857Z,94648.38
2023-08-24T10:54:49.365Z,94650.28
2023-08-24T10:57:15.749Z,94655.44
2023-08-24T10:59:50.935Z,94643.72
2023-08-24T11:02:18.100Z,94647.41
2023-08-24T11:04:44.507Z,94644.19
2023-08-24T11:07:10.892Z,94647.28
2023-08-24T11:09:37.276Z,94641.34
2023-08-24T11:12:03.701Z,94634.25
2023-08-24T11:14:30.093Z,94630.34
2023-08-24T11:16:56.460Z,94630.53
2023-08-24T11:19:22.840Z,94629.47
2023-08-24T11:21:49.208Z,94628.94
2023-08-24T11:24:15.596Z,94630.69
2023-08-24T11:26:42.001Z,94625.41
2023-08-24T11:29:08.390Z,94629.59
2023-08-24T11:31:34.814Z,94621.91
2023-08-24T11:34:01.218Z,94621.22
2023-08-24T11:36:27.611Z,94621.72
2023-08-24T11:38:53.977Z,94611.59
2023-08-24T11:41:20.464Z,94609.63
2023-08-24T11:43:46.972Z,94604.16
2023-08-24T11:46:13.375Z,94616.91
2023-08-24T11:48:39.781Z,94600.47
2023-08-24T11:51:06.142Z,94606.66
2023-08-24T11:53:32.529Z,94605.88
2023-08-24T11:56:05.461Z,94604.63
2023-08-24T11:58:32.299Z,94602.91
2023-08-24T12:00:58.706Z,94596.38
2023-08-24T12:03:25.167Z,94595.81
2023-08-24T12:05:51.596Z,94588.13
2023-08-24T12:08:17.968Z,94586.28
2023-08-24T12:10:44.345Z,94577.97
2023-08-24T12:13:12.861Z,94576.31
2023-08-24T12:15:39.678Z,94570.25
2023-08-24T12:18:06.208Z,94566.47
2023-08-24T12:20:32.578Z,94563.03
2023-08-24T12:22:58.945Z,94562.47
2023-08-24T12:25:25.352Z,94562.69
2023-08-24T12:27:51.840Z,94556.28
2023-08-24T12:30:18.271Z,94544.28
2023-08-24T12:32:44.710Z,94540.97
2023-08-24T12:35:11.118Z,94549.56
2023-08-24T12:37:37.491Z,94526.03
2023-08-24T12:40:03.864Z,94532.53
2023-08-24T12:42:30.250Z,94524.28
2023-08-24T12:44:56.661Z,94516.88
2023-08-24T12:47:23.062Z,94510.63
2023-08-24T12:49:49.431Z,94506.94
2023-08-24T12:52:15.811Z,94515.50
2023-08-24T12:54:42.189Z,94501.59
2023-08-24T12:57:08.574Z,94502.84
2023-08-24T12:59:34.957Z,94493.25
2023-08-24T13:02:01.529Z,94502.78
2023-08-24T13:04:27.948Z,94493.81
2023-08-24T13:06:54.385Z,94496.31
2023-08-24T13:09:20.771Z,94487.72
2023-08-24T13:11:47.165Z,94490.56
2023-08-24T13:14:13.564Z,94478.22
2023-08-24T13:16:40.021Z,94475.31
2023-08-24T13:19:06.441Z,94467.06
2023-08-24T13:21:32.837Z,94465.47
2023-08-24T13:23:59.256Z,94472.13
2023-08-24T13:26:25.695Z,94468.22
2023-08-24T13:28:52.083Z,94461.13
2023-08-24T13:31:18.552Z,94457.59
2023-08-24T13:33:45.016Z,94462.03
2023-08-24T13:36:11.393Z,94450.97
2023-08-24T13:38:37.787Z,94435.78
2023-08-24T13:41:04.175Z,94432.78
2023-08-24T13:43:30.582Z,94429.75
2023-08-24T13:45:57.060Z,94438.25
2023-08-24T13:48:23.495Z,94425.66
2023-08-24T13:50:49.886Z,94421.41
2023-08-24T13:53:16.279Z,94415.25
2023-08-24T13:55:42.660Z,94415.31
2023-08-24T13:58:09.075Z,94407.69
2023-08-24T14:00:35.480Z,94406.19
2023-08-24T14:03:01.937Z,94405.47
2023-08-24T14:05:28.378Z,94403.25
2023-08-24T14:07:54.747Z,94403.75
2023-08-24T14:10:21.123Z,94407.97
2023-08-24T14:12:47.513Z,94402.28
2023-08-24T14:15:13.903Z,94405.41
2023-08-24T14:17:40.399Z,94409.34
2023-08-24T14:20:06.880Z,94404.63
2023-08-24T14:22:33.278Z,94406.19
2023-08-24T14:24:59.656Z,94408.19
2023-08-24T14:27:26.048Z,94409.13
2023-08-24T14:29:52.457Z,94411.00
2023-08-24T14:32:18.842Z,94410.56
2023-08-24T14:34:45.234Z,94401.09
2023-08-24T14:37:11.632Z,94400.34
2023-08-24T14:39:38.035Z,94399.25
2023-08-24T14:42:04.425Z,94402.78
2023-08-24T14:44:31.695Z,94400.94
2023-08-24T14:46:58.170Z,94394.59
2023-08-24T14:49:24.719Z,94394.06
2023-08-24T14:51:51.163Z,94405.03
2023-08-24T14:54:17.538Z,94401.50
2023-08-24T14:56:43.911Z,94402.94
2023-08-24T14:59:10.295Z,94396.06
2023-08-24T15:01:36.857Z,94391.91
2023-08-24T15:04:03.295Z,94398.38
2023-08-24T15:06:29.726Z,94406.91
2023-08-24T15:08:56.146Z,94407.41
2023-08-24T15:11:22.523Z,94419.03
2023-08-24T15:13:49.108Z,94435.09
2023-08-24T15:16:15.510Z,94445.47
2023-08-24T15:18:41.922Z,94444.69
2023-08-24T15:21:08.314Z,94445.13
2023-08-24T15:23:34.690Z,94443.03
2023-08-24T15:26:01.118Z,94439.25
2023-08-24T15:28:27.487Z,94437.91
2023-08-24T15:30:53.893Z,94433.47
2023-08-24T15:33:20.315Z,94436.13
2023-08-24T15:35:46.761Z,94429.84
2023-08-24T15:38:13.142Z,94435.66
2023-08-24T15:40:39.518Z,94422.47
2023-08-24T15:43:05.941Z,94428.94
2023-08-24T15:45:32.403Z,94427.72
2023-08-24T15:47:58.900Z,94426.63
2023-08-24T15:50:25.363Z,94417.72
2023-08-24T15:52:51.932Z,94425.94
2023-08-24T15:55:18.424Z,94429.56
2023-08-24T15:57:44.804Z,94425.94
2023-08-24T16:00:11.213Z,94429.91
2023-08-24T16:02:37.603Z,94433.13
2023-08-24T16:05:04.003Z,94432.34
2023-08-24T16:07:30.411Z,94441.91
2023-08-24T16:09:56.789Z,94444.53
2023-08-24T16:12:23.148Z,94442.38
2023-08-24T16:14:49.524Z,94446.59
2023-08-24T16:17:16.959Z,94448.75
2023-08-24T16:19:43.336Z,94458.00
2023-08-24T16:22:09.736Z,94459.03
2023-08-24T16:24:36.102Z,94466.22
2023-08-24T16:27:02.472Z,94464.91
2023-08-24T16:29:29.034Z,94480.66
2023-08-24T16:31:55.421Z,94475.16
2023-08-24T16:34:21.786Z,94477.88
2023-08-24T16:36:48.163Z,94476.34
2023-08-24T16:39:14.538Z,94488.63
2023-08-24T16:41:40.958Z,94492.06
2023-08-24T16:44:07.364Z,94513.28
2023-08-24T16:46:33.745Z,94527.59
2023-08-24T16:49:00.131Z,94522.38
2023-08-24T16:51:26.519Z,94533.25
2023-08-24T16:53:52.906Z,94507.75
2023-08-24T16:56:19.277Z,94479.97
2023-08-24T16:58:45.705Z,94484.41
2023-08-24T17:01:12.097Z,94487.22
2023-08-24T17:03:38.495Z,94476.31
2023-08-24T17:06:04.899Z,94445.13
2023-08-24T17:08:31.279Z,94412.69
2023-08-24T17:10:57.659Z,94405.72
2023-08-24T17:13:24.052Z,94410.25
2023-08-24T17:15:50.415Z,94416.03
2023-08-24T17:18:17.006Z,94435.50
2023-08-24T17:20:43.469Z,94443.25
2023-08-24T17:23:09.865Z,94447.34
2023-08-24T17:25:36.493Z,94453.06
2023-08-24T17:28:02.852Z,94468.19
2023-08-24T17:30:29.251Z,94474.16
2023-08-24T17:32:57.255Z,94467.31
2023-08-24T17:35:23.955Z,94479.66
2023-08-24T17:37:50.400Z,94484.09
2023-08-24T17:40:16.896Z,94496.78
2023-08-24T17:42:43.290Z,94487.31
2023-08-24T17:45:09.778Z,94470.16
2023-08-24T17:47:36.255Z,94462.00
2023-08-24T17:50:02.684Z,94467.44
2023-08-24T17:52:29.087Z,94469.72
2023-08-24T17:54:55.471Z,94469.88
2023-08-24T17:57:21.848Z,94475.16
2023-08-24T17:59:48.213Z,94473.06
2023-08-24T18:02:14.595Z,94487.97
2023-08-24T18:04:40.972Z,94489.56
2023-08-24T18:07:07.366Z,94491.66
2023-08-24T18:09:33.747Z,94483.16
2023-08-24T18:12:00.152Z,94457.03
2023-08-24T18:14:26.541Z,94450.13
2023-08-24T18:16:52.915Z,94452.69
2023-08-24T18:19:19.352Z,94465.66
2023-08-24T18:21:46.648Z,94486.66
2023-08-24T18:24:13.060Z,94481.69
2023-08-24T18:26:39.449Z,94475.28
2023-08-24T18:29:05.828Z,94470.16
2023-08-24T18:31:32.236Z,94477.50
2023-08-24T18:33:58.634Z,94471.75
2023-08-24T18:36:25.039Z,94471.84
2023-08-24T18:38:51.424Z,94497.06
2023-08-24T18:41:17.805Z,94508.72
2023-08-24T18:43:44.183Z,94498.94
2023-08-24T18:46:10.601Z,94488.81
2023-08-24T18:48:37.042Z,94496.91
2023-08-24T18:51:03.440Z,94494.94
2023-08-24T18:53:29.939Z,94498.91
2023-08-24T18:55:56.476Z,94497.56
2023-08-24T18:58:23.050Z,94505.22
2023-08-24T19:00:49.471Z,94498.50
2023-08-24T19:03:15.857Z,94493.44
2023-08-24T19:05:43.404Z,94498.41
2023-08-24T19:08:09.857Z,94503.75
2023-08-24T19:10:36.236Z,94521.22
2023-08-24T19:13:02.626Z,94535.72
2023-08-24T19:15:30.102Z,94549.78
2023-08-24T19:17:56.922Z,94552.53
2023-08-24T19:20:23.552Z,94560.22
2023-08-24T19:22:49.951Z,94560.75
2023-08-24T19:25:16.347Z,94555.31
2023-08-24T19:27:42.731Z,94553.50
2023-08-24T19:30:09.132Z,94558.53
2023-08-24T19:32:35.547Z,94553.75
2023-08-24T19:35:01.975Z,94548.81
2023-08-24T19:37:28.362Z,94549.97
2023-08-24T19:39:54.745Z,94559.13
2023-08-24T19:42:21.124Z,94563.34
2023-08-24T19:44:47.506Z,94568.25
2023-08-24T19:47:13.887Z,94569.28
2023-08-24T19:49:40.306Z,94573.91
2023-08-24T19:52:06.850Z,94561.75
2023-08-24T19:54:33.228Z,94571.81
2023-08-24T19:56:59.601Z,94575.72
2023-08-24T19:59:25.977Z,94569.19
2023-08-24T20:01:52.417Z,94575.47
2023-08-24T20:04:18.786Z,94581.13
2023-08-24T20:06:45.164Z,94585.28
2023-08-24T20:09:11.566Z,94580.03
2023-08-24T20:11:37.936Z,94579.41
2023-08-24T20:14:04.320Z,94573.28
2023-08-24T20:16:30.697Z,94569.47
2023-08-24T20:18:57.092Z,94571.28
2023-08-24T20:21:23.558Z,94564.88
2023-08-24T20:23:49.935Z,94563.56
2023-08-24T20:26:16.327Z,94567.25
2023-08-24T20:28:42.697Z,94562.00
2023-08-24T20:31:09.239Z,94558.28
2023-08-24T20:33:35.735Z,94557.94
2023-08-24T20:36:02.096Z,94562.06
2023-08-24T20:38:28.480Z,94559.84
2023-08-24T20:40:54.856Z,94566.31
2023-08-24T20:43:21.236Z,94560.69
2023-08-24T20:45:47.660Z,94566.59
2023-08-24T20:48:14.147Z,94571.31
2023-08-24T20:50:40.564Z,94563.56
2023-08-24T20:53:06.958Z,94564.03
2023-08-24T20:55:33.343Z,94565.25
2023-08-24T20:57:59.712Z,94572.78
2023-08-24T21:00:26.098Z,94583.13
2023-08-24T21:02:52.514Z,94583.34
2023-08-24T21:05:18.957Z,94589.44
2023-08-24T21:07:45.353Z,94595.16
2023-08-24T21:10:11.737Z,94590.53
2023-08-24T21:12:38.141Z,94593.59
2023-08-24T21:15:04.517Z,94597.41
2023-08-24T21:17:30.977Z,94602.75
2023-08-24T21:19:57.386Z,94603.22
2023-08-24T21:22:23.772Z,94605.94
2023-08-24T21:24:50.159Z,94608.56
2023-08-24T21:27:16.554Z,94615.47
2023-08-24T21:29:42.933Z,94611.94
2023-08-24T21:32:09.317Z,94611.22
2023-08-24T21:34:35.715Z,94603.72
2023-08-24T21:37:02.121Z,94605.19
2023-08-24T21:39:28.513Z,94606.72
2023-08-24T21:41:54.885Z,94602.50
2023-08-24T21:44:21.248Z,94594.88
2023-08-24T21:46:47.634Z,94601.81
2023-08-24T21:49:14.031Z,94594.28
2023-08-24T21:51:40.457Z,94595.97
2023-08-24T21:54:06.850Z,94593.78
2023-08-24T21:56:33.311Z,94601.31
2023-08-24T21:58:59.698Z,94597.69
2023-08-24T22:01:26.126Z,94604.47
2023-08-24T22:03:52.650Z,94592.97
2023-08-24T22:06:19.041Z,94590.03
2023-08-24T22:08:45.412Z,94586.22
2023-08-24T22:11:11.789Z,94587.16
2023-08-24T22:13:38.159Z,94588.22
2023-08-24T22:16:04.567Z,94585.44
2023-08-24T22:18:30.957Z,94587.25
2023-08-24T22:20:57.342Z,94584.03
2023-08-24T22:23:23.734Z,94588.88
2023-08-24T22:25:50.119Z,94590.41
2023-08-24T22:28:16.494Z,94592.16
2023-08-24T22:30:42.872Z,94591.56
2023-08-24T22:33:09.274Z,94587.22
2023-08-24T22:35:35.673Z,94581.81
2023-08-24T22:38:02.048Z,94577.81
2023-08-24T22:40:28.469Z,94570.34
2023-08-24T22:42:54.883Z,94575.97
2023-08-24T22:45:21.248Z,94564.25
2023-08-24T22:47:47.675Z,94560.22
2023-08-24T22:50:14.083Z,94563.13
2023-08-24T22:52:40.459Z,94571.19
2023-08-24T22:55:06.858Z,94574.34
2023-08-24T22:57:33.247Z,94574.56
2023-08-24T22:59:59.633Z,94569.94
2023-08-24T23:02:26.022Z,94555.16
2023-08-24T23:04:52.419Z,94554.66
2023-08-24T23:07:18.840Z,94552.69
2023-08-24T23:09:45.212Z,94559.56
2023-08-24T23:12:11.614Z,94566.38
2023-08-24T23:14:37.976Z,94562.91
2023-08-24T23:17:04.440Z,94554.75
2023-08-24T23:19:30.810Z,94554.16
2023-08-24T23:21:57.213Z,94548.94
2023-08-24T23:26:52.879Z,94549.75
2023-08-24T23:29:19.247Z,94545.56
2023-08-24T23:31:45.709Z,94539.16
2023-08-24T23:34:12.180Z,94547.94
2023-08-24T23:36:38.561Z,94541.75
2023-08-24T23:39:04.945Z,94539.47
2023-08-24T23:41:31.337Z,94541.03
2023-08-24T23:43:57.714Z,94537.84
2023-08-24T23:46:24.090Z,94544.75
2023-08-24T23:48:50.466Z,94536.53
2023-08-24T23:51:16.835Z,94531.91
2023-08-24T23:53:43.224Z,94536.59
2023-08-24T23:56:09.604Z,94538.50
2023-08-24T23:58:35.992Z,94535.72
